createdAt,value
2019-02-22T00:00:18.597Z,1003.72
2019-02-22T00:01:18.772Z,1003.72
2019-02-22T00:02:18.948Z,1003.72
2019-02-22T00:03:19.127Z,1003.72
2019-02-22T00:04:19.302Z,1003.70
2019-02-22T00:05:19.477Z,1003.72
2019-02-22T00:06:19.656Z,1003.74
2019-02-22T00:07:19.833Z,1003.70
2019-02-22T00:08:20.035Z,1003.72
2019-02-22T00:09:20.199Z,1003.76
2019-02-22T00:10:20.367Z,1003.78
2019-02-22T00:11:20.536Z,1003.78
2019-02-22T00:12:20.721Z,1003.80
2019-02-22T00:13:20.909Z,1003.78
2019-02-22T00:14:21.067Z,1003.81
2019-02-22T00:15:21.242Z,1003.79
2019-02-22T00:16:21.418Z,1003.81
2019-02-22T00:17:21.598Z,1003.78
2019-02-22T00:18:21.771Z,1003.77
2019-02-22T00:19:21.945Z,1003.80
2019-02-22T00:20:22.122Z,1003.76
2019-02-22T00:21:22.296Z,1003.77
2019-02-22T00:22:22.477Z,1003.82
2019-02-22T00:23:22.648Z,1003.82
2019-02-22T00:24:22.827Z,1003.86
2019-02-22T00:25:23.018Z,1003.86
2019-02-22T00:26:23.176Z,1003.89
2019-02-22T00:27:23.366Z,1003.91
2019-02-22T00:28:23.527Z,1003.95
2019-02-22T00:29:23.705Z,1003.97
2019-02-22T00:30:23.880Z,1003.98
2019-02-22T00:31:24.068Z,1003.99
2019-02-22T00:32:24.237Z,1004.01
2019-02-22T00:33:24.415Z,1004.02
2019-02-22T00:34:24.625Z,1003.98
2019-02-22T00:35:24.763Z,1004.05
2019-02-22T00:36:24.977Z,1004.04
2019-02-22T00:37:25.145Z,1004.02
2019-02-22T00:38:27.145Z,1004.04
2019-02-22T00:39:25.469Z,1004.07
2019-02-22T00:40:25.643Z,1004.08
2019-02-22T00:41:25.818Z,1004.08
2019-02-22T00:42:25.995Z,1004.08
2019-02-22T00:43:26.170Z,1004.08
2019-02-22T00:44:26.347Z,1004.13
2019-02-22T00:45:26.526Z,1004.18
2019-02-22T00:46:26.697Z,1004.16
2019-02-22T00:47:26.872Z,1004.14
2019-02-22T00:48:27.052Z,1004.13
2019-02-22T00:49:27.320Z,1004.14
2019-02-22T00:50:27.398Z,1004.15
2019-02-22T00:51:27.574Z,1004.19
2019-02-22T00:52:27.749Z,1004.14
2019-02-22T00:53:27.936Z,1004.14
2019-02-22T00:54:28.110Z,1004.15
2019-02-22T00:55:28.279Z,1004.14
2019-02-22T00:56:28.459Z,1004.16
2019-02-22T00:57:28.656Z,1004.17
2019-02-22T00:58:28.816Z,1004.14
2019-02-22T00:59:28.981Z,1004.19
2019-02-22T01:00:29.155Z,1004.18
2019-02-22T01:01:29.331Z,1004.24
2019-02-22T01:02:29.507Z,1004.28
2019-02-22T01:03:29.689Z,1004.28
2019-02-22T01:04:29.859Z,1004.26
2019-02-22T01:06:30.200Z,1004.25
2019-02-22T01:07:30.377Z,1004.27
2019-02-22T01:08:30.551Z,1004.29
2019-02-22T01:09:30.727Z,1004.29
2019-02-22T01:10:31.625Z,1004.33
2019-02-22T01:11:31.078Z,1004.26
2019-02-22T01:12:31.255Z,1004.29
2019-02-22T01:13:31.432Z,1004.28
2019-02-22T01:14:31.618Z,1004.27
2019-02-22T01:15:31.783Z,1004.27
2019-02-22T01:16:31.959Z,1004.27
2019-02-22T01:17:32.135Z,1004.28
2019-02-22T01:18:32.315Z,1004.26
2019-02-22T01:19:32.489Z,1004.29
2019-02-22T01:20:32.669Z,1004.29
2019-02-22T01:21:32.840Z,1004.25
2019-02-22T01:22:33.019Z,1004.29
2019-02-22T01:23:33.190Z,1004.28
2019-02-22T01:24:33.366Z,1004.27
2019-02-22T01:25:33.555Z,1004.29
2019-02-22T01:26:33.721Z,1004.33
2019-02-22T01:27:33.888Z,1004.37
2019-02-22T01:28:34.063Z,1004.37
2019-02-22T01:29:34.242Z,1004.38
2019-02-22T01:30:34.419Z,1004.34
2019-02-22T01:31:34.593Z,1004.36
2019-02-22T01:32:34.766Z,1004.37
2019-02-22T01:33:34.946Z,1004.37
2019-02-22T01:34:35.120Z,1004.40
2019-02-22T01:35:35.295Z,1004.40
2019-02-22T01:36:35.521Z,1004.40
2019-02-22T01:37:35.656Z,1004.44
2019-02-22T01:38:35.823Z,1004.47
2019-02-22T01:39:35.998Z,1004.46
2019-02-22T01:40:43.791Z,1004.49
2019-02-22T01:41:36.355Z,1004.54
2019-02-22T01:42:36.524Z,1004.54
2019-02-22T01:43:36.702Z,1004.53
2019-02-22T01:44:36.878Z,1004.52
2019-02-22T01:45:37.055Z,1004.52
2019-02-22T01:46:37.239Z,1004.54
2019-02-22T01:47:37.415Z,1004.56
2019-02-22T01:48:37.585Z,1004.53
2019-02-22T01:49:37.758Z,1004.59
2019-02-22T01:50:37.994Z,1004.61
2019-02-22T01:51:38.114Z,1004.62
2019-02-22T01:52:38.286Z,1004.61
2019-02-22T01:53:38.463Z,1004.59
2019-02-22T01:54:38.640Z,1004.60
2019-02-22T01:55:38.816Z,1004.61
2019-02-22T01:56:38.991Z,1004.63
2019-02-22T01:57:39.170Z,1004.61
2019-02-22T01:58:48.342Z,1004.64
2019-02-22T01:59:39.522Z,1004.61
2019-02-22T02:00:39.693Z,1004.60
2019-02-22T02:01:39.870Z,1004.61
2019-02-22T02:02:40.051Z,1004.62
2019-02-22T02:03:40.226Z,1004.69
2019-02-22T02:04:40.411Z,1004.73
2019-02-22T02:05:40.574Z,1004.70
2019-02-22T02:06:40.750Z,1004.73
2019-02-22T02:07:40.927Z,1004.72
2019-02-22T02:08:41.100Z,1004.70
2019-02-22T02:09:41.279Z,1004.66
2019-02-22T02:10:41.457Z,1004.68
2019-02-22T02:11:41.631Z,1004.65
2019-02-22T02:12:41.809Z,1004.67
2019-02-22T02:13:41.988Z,1004.69
2019-02-22T02:14:42.162Z,1004.71
2019-02-22T02:15:42.331Z,1004.69
2019-02-22T02:16:42.509Z,1004.64
2019-02-22T02:17:42.685Z,1004.68
2019-02-22T02:18:42.862Z,1004.70
2019-02-22T02:19:43.047Z,1004.64
2019-02-22T02:20:43.241Z,1004.66
2019-02-22T02:21:43.391Z,1004.67
2019-02-22T02:22:43.568Z,1004.69
2019-02-22T02:23:43.742Z,1004.67
2019-02-22T02:24:43.919Z,1004.69
2019-02-22T02:25:44.096Z,1004.70
2019-02-22T02:26:44.268Z,1004.70
2019-02-22T02:27:44.452Z,1004.73
2019-02-22T02:28:44.616Z,1004.70
2019-02-22T02:29:44.793Z,1004.64
2019-02-22T02:30:44.981Z,1004.70
2019-02-22T02:31:45.159Z,1004.65
2019-02-22T02:32:45.320Z,1004.63
2019-02-22T02:33:45.504Z,1004.62
2019-02-22T02:34:45.670Z,1004.66
2019-02-22T02:35:45.856Z,1004.68
2019-02-22T02:36:46.024Z,1004.67
2019-02-22T02:37:46.200Z,1004.68
2019-02-22T02:38:46.373Z,1004.68
2019-02-22T02:39:46.566Z,1004.69
2019-02-22T02:40:46.726Z,1004.71
2019-02-22T02:41:46.904Z,1004.65
2019-02-22T02:42:47.078Z,1004.71
2019-02-22T02:43:47.259Z,1004.69
2019-02-22T02:44:47.432Z,1004.70
2019-02-22T02:45:47.607Z,1004.70
2019-02-22T02:46:47.781Z,1004.71
2019-02-22T02:47:47.958Z,1004.75
2019-02-22T02:48:48.131Z,1004.78
2019-02-22T02:49:48.306Z,1004.79
2019-02-22T02:50:48.490Z,1004.82
2019-02-22T02:51:48.658Z,1004.79
2019-02-22T02:52:48.844Z,1004.77
2019-02-22T02:53:49.050Z,1004.78
2019-02-22T02:54:49.186Z,1004.83
2019-02-22T02:55:49.363Z,1004.85
2019-02-22T02:56:49.539Z,1004.82
2019-02-22T02:57:49.723Z,1004.81
2019-02-22T02:58:49.900Z,1004.82
2019-02-22T02:59:50.072Z,1004.75
2019-02-22T03:00:50.247Z,1004.78
2019-02-22T03:01:50.438Z,1004.73
2019-02-22T03:02:50.611Z,1004.81
2019-02-22T03:03:50.775Z,1004.82
2019-02-22T03:04:50.944Z,1004.84
2019-02-22T03:05:51.166Z,1004.85
2019-02-22T03:06:51.301Z,1004.86
2019-02-22T03:07:51.479Z,1004.90
2019-02-22T03:08:51.657Z,1004.88
2019-02-22T03:09:51.824Z,1004.91
2019-02-22T03:10:52.000Z,1004.94
2019-02-22T03:11:52.180Z,1004.93
2019-02-22T03:12:52.350Z,1004.90
2019-02-22T03:13:52.527Z,1004.90
2019-02-22T03:14:52.704Z,1004.90
2019-02-22T03:15:52.880Z,1004.94
2019-02-22T03:16:53.053Z,1004.91
2019-02-22T03:17:53.231Z,1004.93
2019-02-22T03:18:53.405Z,1004.96
2019-02-22T03:19:53.580Z,1005.03
2019-02-22T03:20:53.757Z,1004.97
2019-02-22T03:21:53.926Z,1005.03
2019-02-22T03:22:54.104Z,1005.03
2019-02-22T03:23:54.285Z,1005.08
2019-02-22T03:24:54.462Z,1005.07
2019-02-22T03:25:54.635Z,1005.12
2019-02-22T03:26:54.814Z,1005.06
2019-02-22T03:27:55.032Z,1005.07
2019-02-22T03:28:55.161Z,1005.08
2019-02-22T03:29:55.336Z,1005.09
2019-02-22T03:30:55.518Z,1005.07
2019-02-22T03:31:55.693Z,1005.05
2019-02-22T03:32:55.871Z,1005.07
2019-02-22T03:33:56.042Z,1005.04
2019-02-22T03:34:56.211Z,1005.11
2019-02-22T03:35:56.390Z,1005.11
2019-02-22T03:36:56.651Z,1005.11
2019-02-22T03:37:56.740Z,1005.09
2019-02-22T03:38:56.919Z,1005.11
2019-02-22T03:39:57.094Z,1005.13
2019-02-22T03:40:57.284Z,1005.17
2019-02-22T03:41:57.441Z,1005.16
2019-02-22T03:42:57.619Z,1005.18
2019-02-22T03:43:57.796Z,1005.25
2019-02-22T03:44:57.970Z,1005.27
2019-02-22T03:45:58.234Z,1005.30
2019-02-22T03:46:58.317Z,1005.29
2019-02-22T03:47:58.489Z,1005.30
2019-02-22T03:48:58.660Z,1005.31
2019-02-22T03:49:58.833Z,1005.31
2019-02-22T03:50:59.013Z,1005.41
2019-02-22T03:51:59.183Z,1005.42
2019-02-22T03:52:59.370Z,1005.42
2019-02-22T03:53:59.535Z,1005.42
2019-02-22T03:54:59.713Z,1005.48
2019-02-22T03:55:59.891Z,1005.50
2019-02-22T03:57:00.068Z,1005.52
2019-02-22T03:58:00.236Z,1005.51
2019-02-22T03:59:00.415Z,1005.58
2019-02-22T04:00:00.587Z,1005.58
2019-02-22T04:01:00.772Z,1005.56
2019-02-22T04:02:00.938Z,1005.53
2019-02-22T04:03:01.112Z,1005.49
2019-02-22T04:04:01.303Z,1005.51
2019-02-22T04:05:01.469Z,1005.54
2019-02-22T04:06:01.641Z,1005.55
2019-02-22T04:07:01.819Z,1005.55
2019-02-22T04:08:02.006Z,1005.60
2019-02-22T04:09:02.170Z,1005.59
2019-02-22T04:10:02.357Z,1005.61
2019-02-22T04:11:02.516Z,1005.55
2019-02-22T04:12:02.694Z,1005.54
2019-02-22T04:13:02.878Z,1005.59
2019-02-22T04:14:03.058Z,1005.60
2019-02-22T04:15:03.215Z,1005.68
2019-02-22T04:16:03.396Z,1005.66
2019-02-22T04:17:03.564Z,1005.64
2019-02-22T04:18:03.737Z,1005.74
2019-02-22T04:19:03.927Z,1005.63
2019-02-22T04:20:04.097Z,1005.68
2019-02-22T04:21:04.265Z,1005.67
2019-02-22T04:22:04.442Z,1005.66
2019-02-22T04:23:04.629Z,1005.72
2019-02-22T04:24:04.801Z,1005.72
2019-02-22T04:25:04.966Z,1005.71
2019-02-22T04:26:05.137Z,1005.73
2019-02-22T04:27:05.311Z,1005.70
2019-02-22T04:28:05.491Z,1005.73
2019-02-22T04:29:09.122Z,1005.72
2019-02-22T04:30:05.806Z,1005.79
2019-02-22T04:31:05.980Z,1005.71
2019-02-22T04:32:06.163Z,1005.76
2019-02-22T04:33:06.330Z,1005.74
2019-02-22T04:34:06.513Z,1005.74
2019-02-22T04:35:06.681Z,1005.70
2019-02-22T04:36:06.851Z,1005.70
2019-02-22T04:37:07.029Z,1005.71
2019-02-22T04:38:07.201Z,1005.69
2019-02-22T04:39:07.377Z,1005.70
2019-02-22T04:40:07.565Z,1005.70
2019-02-22T04:41:07.735Z,1005.68
2019-02-22T04:42:07.906Z,1005.65
2019-02-22T04:43:08.082Z,1005.69
2019-02-22T04:44:08.261Z,1005.70
2019-02-22T04:45:08.436Z,1005.71
2019-02-22T04:46:08.609Z,1005.72
2019-02-22T04:47:08.790Z,1005.73
2019-02-22T04:48:08.960Z,1005.75
2019-02-22T04:49:09.148Z,1005.75
2019-02-22T04:50:09.306Z,1005.75
2019-02-22T04:51:09.483Z,1005.73
2019-02-22T04:52:09.657Z,1005.77
2019-02-22T04:53:09.831Z,1005.74
2019-02-22T04:54:10.045Z,1005.78
2019-02-22T04:55:10.183Z,1005.80
2019-02-22T04:56:10.359Z,1005.85
2019-02-22T04:57:10.533Z,1005.82
2019-02-22T04:58:10.707Z,1005.80
2019-02-22T04:59:10.883Z,1005.88
2019-02-22T05:00:11.057Z,1005.88
2019-02-22T05:01:11.226Z,1005.85
2019-02-22T05:02:11.401Z,1005.86
2019-02-22T05:03:11.577Z,1005.87
2019-02-22T05:04:11.749Z,1005.84
2019-02-22T05:05:11.923Z,1005.83
2019-02-22T05:06:12.099Z,1005.84
2019-02-22T05:07:12.273Z,1005.86
2019-02-22T05:08:12.446Z,1005.83
2019-02-22T05:09:12.743Z,1005.84
2019-02-22T05:10:12.808Z,1005.81
2019-02-22T05:11:12.982Z,1005.90
2019-02-22T05:12:13.148Z,1005.83
2019-02-22T05:13:13.334Z,1005.87
2019-02-22T05:14:13.510Z,1005.83
2019-02-22T05:15:13.678Z,1005.86
2019-02-22T05:16:13.848Z,1005.85
2019-02-22T05:17:14.023Z,1005.87
2019-02-22T05:18:14.201Z,1005.83
2019-02-22T05:19:14.376Z,1005.85
2019-02-22T05:20:14.550Z,1005.88
2019-02-22T05:21:14.726Z,1005.93
2019-02-22T05:22:14.899Z,1005.97
2019-02-22T05:23:15.073Z,1005.99
2019-02-22T05:24:15.248Z,1005.97
2019-02-22T05:25:15.422Z,1005.96
2019-02-22T05:26:15.602Z,1006.01
2019-02-22T05:27:15.763Z,1006.04
2019-02-22T05:28:15.928Z,1006.02
2019-02-22T05:29:16.127Z,1006.03
2019-02-22T05:30:16.302Z,1006.06
2019-02-22T05:31:16.472Z,1006.10
2019-02-22T05:32:16.649Z,1006.11
2019-02-22T05:33:16.823Z,1006.11
2019-02-22T05:34:16.999Z,1006.10
2019-02-22T05:35:17.173Z,1006.07
2019-02-22T05:36:17.347Z,1006.08
2019-02-22T05:37:17.534Z,1006.09
2019-02-22T05:38:17.696Z,1006.10
2019-02-22T05:39:19.320Z,1006.13
2019-02-22T05:40:18.043Z,1006.10
2019-02-22T05:41:18.223Z,1006.09
2019-02-22T05:42:22.883Z,1006.12
2019-02-22T05:43:18.572Z,1006.11
2019-02-22T05:44:18.749Z,1006.13
2019-02-22T05:45:18.915Z,1006.16
2019-02-22T05:46:19.086Z,1006.18
2019-02-22T05:47:19.273Z,1006.19
2019-02-22T05:48:19.444Z,1006.22
2019-02-22T05:49:22.125Z,1006.20
2019-02-22T05:50:19.802Z,1006.19
2019-02-22T05:51:19.961Z,1006.18
2019-02-22T05:52:20.135Z,1006.16
2019-02-22T05:53:20.309Z,1006.12
2019-02-22T05:54:20.484Z,1006.17
2019-02-22T05:55:20.665Z,1006.20
2019-02-22T05:56:20.835Z,1006.23
2019-02-22T05:57:21.010Z,1006.20
2019-02-22T05:58:21.192Z,1006.16
2019-02-22T05:59:21.361Z,1006.20
2019-02-22T06:00:21.574Z,1006.20
2019-02-22T06:01:21.710Z,1006.26
2019-02-22T06:02:21.891Z,1006.26
2019-02-22T06:03:22.062Z,1006.29
2019-02-22T06:04:22.240Z,1006.34
2019-02-22T06:05:22.416Z,1006.36
2019-02-22T06:06:22.593Z,1006.41
2019-02-22T06:07:22.766Z,1006.41
2019-02-22T06:08:22.942Z,1006.45
2019-02-22T06:09:23.122Z,1006.50
2019-02-22T06:10:23.301Z,1006.48
2019-02-22T06:11:23.466Z,1006.49
2019-02-22T06:12:34.111Z,1006.48
2019-02-22T06:13:23.818Z,1006.45
2019-02-22T06:14:23.998Z,1006.50
2019-02-22T06:15:24.182Z,1006.49
2019-02-22T06:16:24.348Z,1006.47
2019-02-22T06:17:24.523Z,1006.48
2019-02-22T06:18:24.694Z,1006.52
2019-02-22T06:19:24.863Z,1006.55
2019-02-22T06:20:25.037Z,1006.58
2019-02-22T06:21:25.211Z,1006.57
2019-02-22T06:22:29.690Z,1006.56
2019-02-22T06:23:25.562Z,1006.54
2019-02-22T06:24:25.740Z,1006.56
2019-02-22T06:25:25.914Z,1006.59
2019-02-22T06:26:26.086Z,1006.61
2019-02-22T06:27:26.262Z,1006.59
2019-02-22T06:28:26.456Z,1006.63
2019-02-22T06:29:26.610Z,1006.67
2019-02-22T06:30:26.789Z,1006.67
2019-02-22T06:31:26.962Z,1006.66
2019-02-22T06:32:27.136Z,1006.67
2019-02-22T06:33:27.339Z,1006.71
2019-02-22T06:34:27.510Z,1006.71
2019-02-22T06:35:27.671Z,1006.75
2019-02-22T06:36:27.857Z,1006.77
2019-02-22T06:37:28.025Z,1006.79
2019-02-22T06:38:28.191Z,1006.78
2019-02-22T06:39:28.365Z,1006.84
2019-02-22T06:40:28.541Z,1006.80
2019-02-22T06:41:28.719Z,1006.78
2019-02-22T06:42:28.893Z,1006.83
2019-02-22T06:43:29.066Z,1006.85
2019-02-22T06:44:29.246Z,1006.85
2019-02-22T06:45:29.426Z,1006.85
2019-02-22T06:46:29.594Z,1006.86
2019-02-22T06:47:29.769Z,1006.89
2019-02-22T06:48:29.941Z,1006.88
2019-02-22T06:49:30.121Z,1006.93
2019-02-22T06:50:33.863Z,1006.97
2019-02-22T06:51:30.467Z,1006.96
2019-02-22T06:52:30.640Z,1007.06
2019-02-22T06:53:30.817Z,1007.06
2019-02-22T06:54:30.990Z,1007.10
2019-02-22T06:55:31.169Z,1007.16
2019-02-22T06:56:31.403Z,1007.13
2019-02-22T06:57:31.512Z,1007.23
2019-02-22T06:58:31.711Z,1007.21
2019-02-22T06:59:31.889Z,1007.17
2019-02-22T07:00:32.062Z,1007.19
2019-02-22T07:01:32.243Z,1007.16
2019-02-22T07:02:32.411Z,1007.13
2019-02-22T07:03:32.592Z,1007.18
2019-02-22T07:04:32.766Z,1007.16
2019-02-22T07:05:32.946Z,1007.21
2019-02-22T07:06:33.115Z,1007.24
2019-02-22T07:07:33.289Z,1007.22
2019-02-22T07:08:33.479Z,1007.27
2019-02-22T07:09:33.640Z,1007.30
2019-02-22T07:10:33.822Z,1007.32
2019-02-22T07:11:34.127Z,1007.38
2019-02-22T07:12:34.131Z,1007.41
2019-02-22T07:13:34.305Z,1007.42
2019-02-22T07:14:34.481Z,1007.46
2019-02-22T07:15:34.656Z,1007.50
2019-02-22T07:16:34.840Z,1007.52
2019-02-22T07:17:35.009Z,1007.57
2019-02-22T07:18:35.183Z,1007.57
2019-02-22T07:19:35.368Z,1007.58
2019-02-22T07:20:35.555Z,1007.60
2019-02-22T07:21:49.108Z,1007.66
2019-02-22T07:22:35.877Z,1007.66
2019-02-22T07:23:36.045Z,1007.71
2019-02-22T07:24:36.219Z,1007.72
2019-02-22T07:25:36.440Z,1007.66
2019-02-22T07:26:36.576Z,1007.68
2019-02-22T07:27:36.741Z,1007.76
2019-02-22T07:28:36.923Z,1007.74
2019-02-22T07:29:37.085Z,1007.76
2019-02-22T07:30:37.265Z,1007.72
2019-02-22T07:31:37.444Z,1007.68
2019-02-22T07:32:37.623Z,1007.72
2019-02-22T07:33:37.806Z,1007.75
2019-02-22T07:34:37.997Z,1007.71
2019-02-22T07:35:38.154Z,1007.72
2019-02-22T07:36:38.325Z,1007.78
2019-02-22T07:37:38.512Z,1007.73
2019-02-22T07:38:38.693Z,1007.78
2019-02-22T07:39:38.854Z,1007.76
2019-02-22T07:40:39.037Z,1007.75
2019-02-22T07:41:39.214Z,1007.83
2019-02-22T07:42:39.408Z,1007.82
2019-02-22T07:43:39.570Z,1007.85
2019-02-22T07:44:39.742Z,1007.87
2019-02-22T07:45:39.906Z,1007.89
2019-02-22T07:46:40.083Z,1007.93
2019-02-22T07:47:40.259Z,1007.94
2019-02-22T07:48:40.433Z,1007.93
2019-02-22T07:49:40.610Z,1007.99
2019-02-22T07:50:40.789Z,1008.02
2019-02-22T07:51:41.867Z,1008.03
2019-02-22T07:52:41.136Z,1008.06
2019-02-22T07:53:41.308Z,1008.05
2019-02-22T07:55:41.675Z,1008.14
2019-02-22T07:56:41.884Z,1008.17
2019-02-22T07:57:42.033Z,1008.13
2019-02-22T07:58:42.206Z,1008.20
2019-02-22T07:59:42.383Z,1008.19
2019-02-22T08:00:42.583Z,1008.21
2019-02-22T08:01:47.539Z,1008.18
2019-02-22T08:02:42.936Z,1008.21
2019-02-22T08:03:43.107Z,1008.27
2019-02-22T08:04:43.288Z,1008.31
2019-02-22T08:05:43.464Z,1008.36
2019-02-22T08:06:43.650Z,1008.30
2019-02-22T08:07:43.812Z,1008.32
2019-02-22T08:08:43.988Z,1008.36
2019-02-22T08:09:44.163Z,1008.38
2019-02-22T08:10:44.351Z,1008.37
2019-02-22T08:11:47.282Z,1008.34
2019-02-22T08:12:44.684Z,1008.33
2019-02-22T08:13:44.862Z,1008.34
2019-02-22T08:14:45.046Z,1008.34
2019-02-22T08:15:45.214Z,1008.34
2019-02-22T08:16:45.389Z,1008.32
2019-02-22T08:17:45.582Z,1008.30
2019-02-22T08:18:45.744Z,1008.29
2019-02-22T08:19:45.921Z,1008.32
2019-02-22T08:20:46.096Z,1008.39
2019-02-22T08:21:46.268Z,1008.35
2019-02-22T08:22:46.443Z,1008.37
2019-02-22T08:23:46.625Z,1008.41
2019-02-22T08:24:47.036Z,1008.44
2019-02-22T08:25:46.968Z,1008.50
2019-02-22T08:26:47.146Z,1008.43
2019-02-22T08:27:53.770Z,1008.57
2019-02-22T08:28:47.506Z,1008.57
2019-02-22T08:29:47.671Z,1008.56
2019-02-22T08:30:47.849Z,1008.63
2019-02-22T08:31:48.128Z,1008.64
2019-02-22T08:32:48.191Z,1008.64
2019-02-22T08:33:48.367Z,1008.65
2019-02-22T08:34:48.555Z,1008.67
2019-02-22T08:35:48.710Z,1008.66
2019-02-22T08:36:48.898Z,1008.64
2019-02-22T08:37:49.079Z,1008.68
2019-02-22T08:38:49.239Z,1008.62
2019-02-22T08:39:58.262Z,1008.61
2019-02-22T08:40:49.599Z,1008.64
2019-02-22T08:41:49.770Z,1008.64
2019-02-22T08:42:49.947Z,1008.68
2019-02-22T08:43:50.125Z,1008.65
2019-02-22T08:44:50.307Z,1008.64
2019-02-22T08:45:50.470Z,1008.67
2019-02-22T08:46:50.651Z,1008.72
2019-02-22T08:47:50.834Z,1008.68
2019-02-22T08:48:50.993Z,1008.72
2019-02-22T08:49:51.165Z,1008.72
2019-02-22T08:50:51.343Z,1008.73
2019-02-22T08:51:51.521Z,1008.72
2019-02-22T08:52:51.688Z,1008.77
2019-02-22T08:53:51.865Z,1008.76
2019-02-22T08:54:52.055Z,1008.81
2019-02-22T08:55:52.229Z,1008.83
2019-02-22T08:56:52.403Z,1008.84
2019-02-22T08:57:52.579Z,1008.83
2019-02-22T08:58:52.753Z,1008.85
2019-02-22T08:59:52.943Z,1008.84
2019-02-22T09:00:53.139Z,1008.89
2019-02-22T09:01:53.283Z,1008.89
2019-02-22T09:02:53.470Z,1008.93
2019-02-22T09:03:53.638Z,1008.97
2019-02-22T09:04:53.806Z,1008.99
2019-02-22T09:05:53.982Z,1009.01
2019-02-22T09:06:54.164Z,1009.05
2019-02-22T09:07:54.349Z,1008.99
2019-02-22T09:08:54.525Z,1009.02
2019-02-22T09:09:54.708Z,1009.05
2019-02-22T09:11:00.380Z,1009.04
2019-02-22T09:11:57.588Z,1009.05
2019-02-22T09:12:55.223Z,1009.03
2019-02-22T09:13:55.402Z,1009.06
2019-02-22T09:14:55.575Z,1009.04
2019-02-22T09:15:55.743Z,1009.10
2019-02-22T09:16:55.921Z,1009.06
2019-02-22T09:17:56.099Z,1009.09
2019-02-22T09:18:56.271Z,1009.14
2019-02-22T09:19:56.450Z,1009.11
2019-02-22T09:20:56.630Z,1009.12
2019-02-22T09:21:56.797Z,1009.09
2019-02-22T09:22:56.975Z,1009.13
2019-02-22T09:23:57.166Z,1009.11
2019-02-22T09:24:57.333Z,1009.13
2019-02-22T09:25:57.505Z,1009.13
2019-02-22T09:26:57.679Z,1009.15
2019-02-22T09:27:57.861Z,1009.17
2019-02-22T09:28:58.039Z,1009.21
2019-02-22T09:29:59.235Z,1009.27
2019-02-22T09:30:58.394Z,1009.33
2019-02-22T09:31:58.566Z,1009.29
2019-02-22T09:32:58.742Z,1009.31
2019-02-22T09:33:58.929Z,1009.35
2019-02-22T09:34:59.092Z,1009.32
2019-02-22T09:35:59.264Z,1009.40
2019-02-22T09:36:59.440Z,1009.43
2019-02-22T09:37:59.615Z,1009.45
2019-02-22T09:38:59.793Z,1009.46
2019-02-22T09:39:59.969Z,1009.50
2019-02-22T09:41:00.149Z,1009.49
2019-02-22T09:42:00.324Z,1009.53
2019-02-22T09:43:00.682Z,1009.47
2019-02-22T09:44:00.643Z,1009.46
2019-02-22T09:45:00.818Z,1009.48
2019-02-22T09:46:01.002Z,1009.49
2019-02-22T09:47:01.165Z,1009.53
2019-02-22T09:48:01.361Z,1009.58
2019-02-22T09:49:01.521Z,1009.64
2019-02-22T09:50:01.696Z,1009.60
2019-02-22T09:51:01.878Z,1009.61
2019-02-22T09:52:02.050Z,1009.65
2019-02-22T09:53:02.227Z,1009.61
2019-02-22T09:54:02.404Z,1009.63
2019-02-22T09:55:02.588Z,1009.66
2019-02-22T09:56:02.761Z,1009.70
2019-02-22T09:57:02.927Z,1009.70
2019-02-22T09:58:03.106Z,1009.72
2019-02-22T09:59:03.286Z,1009.73
2019-02-22T10:00:03.460Z,1009.72
2019-02-22T10:01:03.630Z,1009.78
2019-02-22T10:02:03.811Z,1009.79
2019-02-22T10:03:03.987Z,1009.83
2019-02-22T10:04:04.147Z,1009.81
2019-02-22T10:05:04.337Z,1009.83
2019-02-22T10:06:04.507Z,1009.84
2019-02-22T10:07:04.692Z,1009.90
2019-02-22T10:08:04.865Z,1009.89
2019-02-22T10:09:05.061Z,1009.84
2019-02-22T10:10:05.241Z,1009.84
2019-02-22T10:11:05.397Z,1009.86
2019-02-22T10:12:05.573Z,1009.88
2019-02-22T10:13:05.746Z,1009.86
2019-02-22T10:14:06.944Z,1009.88
2019-02-22T10:15:06.093Z,1009.88
2019-02-22T10:16:06.269Z,1009.91
2019-02-22T10:17:06.458Z,1009.91
2019-02-22T10:18:06.622Z,1009.90
2019-02-22T10:19:06.825Z,1009.92
2019-02-22T10:20:06.993Z,1009.92
2019-02-22T10:21:07.180Z,1009.95
2019-02-22T10:22:07.326Z,1009.90
2019-02-22T10:23:07.534Z,1009.91
2019-02-22T10:24:07.687Z,1009.93
2019-02-22T10:25:07.967Z,1009.91
2019-02-22T10:26:08.052Z,1009.93
2019-02-22T10:27:08.279Z,1009.93
2019-02-22T10:28:17.170Z,1009.94
2019-02-22T10:29:08.846Z,1009.94
2019-02-22T10:30:08.846Z,1009.98
2019-02-22T10:31:10.912Z,1009.97
2019-02-22T10:32:09.524Z,1009.97
2019-02-22T10:33:10.521Z,1009.96
2019-02-22T10:34:09.969Z,1009.95
2019-02-22T10:35:11.830Z,1009.99
2019-02-22T10:36:10.211Z,1010.00
2019-02-22T10:37:10.606Z,1010.01
2019-02-22T10:38:10.606Z,1009.99
2019-02-22T10:39:10.500Z,1010.02
2019-02-22T10:40:10.663Z,1010.03
2019-02-22T10:41:10.854Z,1010.03
2019-02-22T10:42:10.996Z,1010.07
2019-02-22T10:43:11.228Z,1010.05
2019-02-22T10:44:17.643Z,1010.04
2019-02-22T10:45:11.530Z,1010.03
2019-02-22T10:46:11.700Z,1010.03
2019-02-22T10:47:11.907Z,1010.09
2019-02-22T10:48:12.100Z,1010.09
2019-02-22T10:49:12.204Z,1010.08
2019-02-22T10:50:12.435Z,1010.08
2019-02-22T10:51:12.555Z,1010.12
2019-02-22T10:52:12.831Z,1010.13
2019-02-22T10:53:12.935Z,1010.12
2019-02-22T10:54:13.034Z,1010.15
2019-02-22T10:55:13.295Z,1010.14
2019-02-22T10:56:13.444Z,1010.15
2019-02-22T10:57:13.722Z,1010.17
2019-02-22T10:58:13.982Z,1010.20
2019-02-22T10:59:14.003Z,1010.18
2019-02-22T11:00:14.163Z,1010.19
2019-02-22T11:01:14.309Z,1010.25
2019-02-22T11:02:14.565Z,1010.26
2019-02-22T11:03:14.645Z,1010.28
2019-02-22T11:04:14.817Z,1010.26
2019-02-22T11:05:15.060Z,1010.29
2019-02-22T11:06:15.121Z,1010.29
2019-02-22T11:07:15.372Z,1010.26
2019-02-22T11:08:15.526Z,1010.32
2019-02-22T11:09:15.655Z,1010.34
2019-02-22T11:10:15.814Z,1010.34
2019-02-22T11:11:16.063Z,1010.37
2019-02-22T11:12:16.220Z,1010.36
2019-02-22T11:14:16.559Z,1010.37
2019-02-22T11:15:16.670Z,1010.36
2019-02-22T11:16:16.865Z,1010.40
2019-02-22T11:17:17.115Z,1010.41
2019-02-22T11:18:17.195Z,1010.40
2019-02-22T11:19:17.411Z,1010.43
2019-02-22T11:20:17.516Z,1010.48
2019-02-22T11:21:17.695Z,1010.48
2019-02-22T11:22:17.858Z,1010.50
2019-02-22T11:23:17.991Z,1010.49
2019-02-22T11:24:19.925Z,1010.49
2019-02-22T11:25:18.407Z,1010.46
2019-02-22T11:26:18.602Z,1010.47
2019-02-22T11:27:18.696Z,1010.50
2019-02-22T11:28:18.928Z,1010.54
2019-02-22T11:29:19.140Z,1010.50
2019-02-22T11:30:19.275Z,1010.51
2019-02-22T11:31:19.432Z,1010.52
2019-02-22T11:32:19.693Z,1010.59
2019-02-22T11:33:19.812Z,1010.55
2019-02-22T11:34:20.057Z,1010.56
2019-02-22T11:35:20.130Z,1010.56
2019-02-22T11:36:20.323Z,1010.62
2019-02-22T11:37:20.477Z,1010.62
2019-02-22T11:38:20.650Z,1010.66
2019-02-22T11:39:20.831Z,1010.65
2019-02-22T11:40:21.081Z,1010.62
2019-02-22T11:41:21.155Z,1010.66
2019-02-22T11:42:21.341Z,1010.64
2019-02-22T11:43:21.678Z,1010.61
2019-02-22T11:44:21.777Z,1010.60
2019-02-22T11:45:21.911Z,1010.62
2019-02-22T11:46:22.083Z,1010.64
2019-02-22T11:47:22.343Z,1010.62
2019-02-22T11:48:22.425Z,1010.63
2019-02-22T11:49:22.598Z,1010.69
2019-02-22T11:50:22.773Z,1010.71
2019-02-22T11:51:22.941Z,1010.69
2019-02-22T11:52:23.135Z,1010.72
2019-02-22T11:53:23.298Z,1010.69
2019-02-22T11:54:23.493Z,1010.70
2019-02-22T11:55:23.671Z,1010.65
2019-02-22T11:56:23.838Z,1010.65
2019-02-22T11:57:24.067Z,1010.67
2019-02-22T11:58:24.193Z,1010.64
2019-02-22T11:59:24.355Z,1010.66
2019-02-22T12:00:24.529Z,1010.70
2019-02-22T12:01:24.715Z,1010.67
2019-02-22T12:02:24.888Z,1010.70
2019-02-22T12:03:25.352Z,1010.68
2019-02-22T12:04:25.243Z,1010.67
2019-02-22T12:05:25.423Z,1010.67
2019-02-22T12:06:25.582Z,1010.69
2019-02-22T12:07:25.756Z,1010.71
2019-02-22T12:08:25.931Z,1010.66
2019-02-22T12:09:26.105Z,1010.66
2019-02-22T12:10:26.279Z,1010.68